Time;durP1;ratioP1;P1;durP2;ratioP2;P2;SDS_P1;SDS_P2;PMS_P1;PMS_P2;Temp;Humidity;BMP_temperature;BMP_pressure;BME280_temperature;BME280_humidity;BME280_pressure;Samples;Min_cycle;Max_cycle;Signal;HPM_P1;HPM_P2
2022/09/21 00:01:06;;;;;;;2.57;2.00;;;7.80;99.90;;;;;;5030930;28;20439;-47
2022/09/21 00:03:33;;;;;;;3.60;1.80;;;7.70;99.90;;;;;;5031568;28;20470;-47
2022/09/21 00:06:04;;;;;;;3.27;1.70;;;7.50;99.90;;;;;;5031379;28;20478;-47
2022/09/21 00:08:31;;;;;;;3.40;1.80;;;7.70;99.90;;;;;;5031416;28;20462;-47
2022/09/21 00:11:00;;;;;;;2.93;2.23;;;7.80;99.90;;;;;;5030621;28;20435;-48
2022/09/21 00:13:28;;;;;;;2.77;2.47;;;8.00;99.90;;;;;;5031216;28;20441;-46
2022/09/21 00:15:55;;;;;;;2.60;1.70;;;8.20;99.90;;;;;;5030967;28;20839;-47
2022/09/21 00:18:22;;;;;;;2.20;1.70;;;8.10;99.90;;;;;;5031204;28;20464;-48
2022/09/21 00:20:51;;;;;;;2.13;1.43;;;8.20;99.90;;;;;;5030477;28;20826;-46
2022/09/21 00:23:18;;;;;;;2.43;2.23;;;8.30;99.90;;;;;;5030781;28;20907;-47
2022/09/21 00:25:45;;;;;;;1.97;1.73;;;8.40;99.90;;;;;;5030866;28;20477;-48
2022/09/21 00:28:13;;;;;;;2.90;1.83;;;8.30;99.90;;;;;;5031146;28;20478;-47
2022/09/21 00:30:40;;;;;;;2.43;1.80;;;7.90;99.90;;;;;;5030398;28;20435;-46
2022/09/21 00:33:07;;;;;;;4.90;2.20;;;7.90;99.90;;;;;;5030728;28;20470;-47
2022/09/21 00:35:34;;;;;;;4.10;2.30;;;7.90;99.90;;;;;;5030138;28;20446;-48
2022/09/21 00:38:02;;;;;;;2.10;1.87;;;7.70;99.90;;;;;;5031119;28;20830;-47
2022/09/21 00:40:30;;;;;;;3.00;2.40;;;7.60;99.90;;;;;;5030506;28;20545;-47
2022/09/21 00:43:14;;;;;;;2.30;2.10;;;7.60;99.90;;;;;;5030601;28;20445;-46
2022/09/21 00:45:41;;;;;;;3.10;2.50;;;7.60;99.90;;;;;;5030758;28;20446;-46
2022/09/21 00:48:09;;;;;;;2.67;2.27;;;7.60;99.90;;;;;;5030963;28;20589;-47
2022/09/21 00:50:40;;;;;;;2.80;2.10;;;7.50;99.90;;;;;;5030078;28;20967;-46
2022/09/21 00:53:07;;;;;;;4.13;2.80;;;7.50;99.90;;;;;;5030829;28;20450;-47
2022/09/21 00:55:40;;;;;;;3.40;2.13;;;7.60;99.90;;;;;;5030855;28;20435;-46
2022/09/21 00:58:12;;;;;;;2.00;1.80;;;7.80;99.90;;;;;;5030808;28;20474;-47
2022/09/21 01:00:40;;;;;;;3.40;2.13;;;7.80;99.90;;;;;;5030628;28;20442;-48
2022/09/21 01:03:09;;;;;;;2.20;2.00;;;7.80;99.90;;;;;;5034993;28;20465;-47
2022/09/21 01:05:36;;;;;;;2.30;1.80;;;7.90;99.90;;;;;;5034558;28;20490;-47
2022/09/21 01:08:06;;;;;;;3.40;2.20;;;8.00;99.90;;;;;;5034926;28;20474;-46
2022/09/21 01:10:44;;;;;;;6.43;2.37;;;8.20;99.90;;;;;;5034163;28;20567;-47
2022/09/21 01:13:21;;;;;;;3.17;1.93;;;8.40;99.90;;;;;;5034632;28;20450;-47
2022/09/21 01:15:58;;;;;;;3.60;1.67;;;8.40;99.90;;;;;;5034445;28;20870;-48
2022/09/21 01:18:35;;;;;;;2.40;2.20;;;8.20;99.90;;;;;;5034315;28;20556;-47
2022/09/21 01:21:24;;;;;;;3.63;2.00;;;8.20;99.90;;;;;;5034102;28;20549;-46
2022/09/21 01:24:33;;;;;;;1.97;1.77;;;7.90;99.90;;;;;;5034214;28;20470;-47
2022/09/21 01:27:28;;;;;;;2.40;2.20;;;7.80;99.90;;;;;;5034460;28;20504;-46
2022/09/21 01:30:01;;;;;;;5.53;2.90;;;7.80;99.90;;;;;;5033715;28;20443;-49
2022/09/21 01:32:33;;;;;;;3.90;2.47;;;7.70;99.90;;;;;;5033845;28;20437;-47
2022/09/21 01:35:03;;;;;;;2.40;2.20;;;7.50;99.90;;;;;;5033748;28;20496;-47
2022/09/21 01:37:36;;;;;;;3.57;1.80;;;7.70;99.90;;;;;;5034382;28;20471;-47
2022/09/21 01:40:09;;;;;;;4.20;2.13;;;8.00;99.90;;;;;;5033550;28;20477;-47
2022/09/21 01:42:39;;;;;;;2.67;2.20;;;7.60;99.90;;;;;;5034125;28;20451;-47
2022/09/21 01:45:11;;;;;;;3.00;1.53;;;7.30;99.90;;;;;;5034035;28;20474;-48
2022/09/21 01:47:40;;;;;;;2.67;2.07;;;7.10;99.90;;;;;;5033896;28;20478;-49
2022/09/21 01:50:10;;;;;;;3.43;2.20;;;7.20;99.90;;;;;;5033213;28;20451;-49
2022/09/21 01:52:43;;;;;;;1.97;1.77;;;7.60;99.90;;;;;;5034094;28;20525;-47
2022/09/21 01:55:16;;;;;;;4.20;2.30;;;7.80;99.90;;;;;;5034023;28;20537;-47
2022/09/21 01:57:49;;;;;;;2.70;1.83;;;7.90;99.90;;;;;;5033655;28;20504;-47
2022/09/21 02:00:18;;;;;;;3.97;2.33;;;8.00;99.90;;;;;;5033257;28;20870;-50
2022/09/21 02:02:50;;;;;;;2.60;2.40;;;8.10;99.90;;;;;;5033765;28;20450;-47
2022/09/21 02:05:20;;;;;;;4.33;2.70;;;8.10;99.90;;;;;;5033377;28;20470;-47
2022/09/21 02:07:47;;;;;;;4.97;2.90;;;8.10;99.90;;;;;;5033703;28;20642;-46
2022/09/21 02:10:20;;;;;;;5.37;3.20;;;8.00;99.90;;;;;;5033094;28;20447;-47
2022/09/21 02:12:50;;;;;;;3.60;2.67;;;8.00;99.90;;;;;;5033357;28;20431;-47
2022/09/21 02:15:28;;;;;;;3.03;2.60;;;8.00;99.90;;;;;;5034047;28;20677;-46
2022/09/21 02:18:05;;;;;;;2.87;2.40;;;8.10;99.90;;;;;;5033339;28;20573;-47
2022/09/21 02:20:36;;;;;;;3.17;2.87;;;8.20;99.90;;;;;;5032669;28;20677;-45
2022/09/21 02:23:11;;;;;;;4.97;2.60;;;8.30;99.90;;;;;;5033535;28;20466;-47
2022/09/21 02:25:46;;;;;;;2.70;2.50;;;8.10;99.90;;;;;;5033052;28;20473;-50
2022/09/21 02:28:20;;;;;;;2.30;2.00;;;8.00;99.90;;;;;;5033261;28;20472;-47
2022/09/21 02:30:58;;;;;;;4.73;2.87;;;8.20;99.90;;;;;;5032691;28;20474;-47
2022/09/21 02:33:31;;;;;;;3.30;2.50;;;8.20;99.90;;;;;;5032303;28;20908;-45
2022/09/21 02:36:04;;;;;;;4.33;2.77;;;8.30;99.90;;;;;;5033147;28;20442;-47
2022/09/21 02:38:36;;;;;;;8.63;3.57;;;8.30;99.90;;;;;;5033176;28;20470;-47
2022/09/21 02:41:08;;;;;;;3.40;2.20;;;8.20;99.90;;;;;;5032564;28;20838;-47
2022/09/21 02:43:40;;;;;;;2.23;2.03;;;7.90;99.90;;;;;;5033005;28;20457;-47
2022/09/21 02:46:14;;;;;;;4.57;2.87;;;7.60;99.90;;;;;;5032804;28;20478;-47
2022/09/21 02:48:47;;;;;;;2.57;2.37;;;8.00;99.90;;;;;;5032298;28;20454;-50
2022/09/21 02:51:19;;;;;;;2.37;2.17;;;8.10;99.90;;;;;;5032809;28;21005;-48
2022/09/21 02:53:48;;;;;;;3.00;2.40;;;8.10;99.90;;;;;;5032778;28;20455;-50
2022/09/21 02:56:17;;;;;;;28.53;14.83;;;8.10;99.90;;;;;;5032700;28;20459;-47
2022/09/21 02:58:49;;;;;;;8.30;5.30;;;8.00;99.90;;;;;;5032049;28;20474;-46
2022/09/21 03:01:19;;;;;;;3.50;2.60;;;8.20;99.90;;;;;;5032537;28;20439;-47
2022/09/21 03:03:46;;;;;;;3.53;2.50;;;8.30;99.90;;;;;;5032679;28;20438;-46
2022/09/21 03:06:13;;;;;;;2.80;1.90;;;8.30;99.90;;;;;;5032588;28;20474;-48
2022/09/21 03:08:40;;;;;;;3.83;2.80;;;8.30;99.90;;;;;;5032550;28;20532;-44
2022/09/21 03:11:09;;;;;;;3.17;2.10;;;8.30;99.90;;;;;;5032282;28;20565;-46
2022/09/21 03:13:36;;;;;;;2.40;2.00;;;8.20;99.90;;;;;;5032345;28;20481;-46
2022/09/21 03:16:05;;;;;;;4.50;2.30;;;8.10;99.90;;;;;;5032624;28;20509;-49
2022/09/21 03:18:34;;;;;;;4.00;2.10;;;8.00;99.90;;;;;;5032032;28;21079;-45
2022/09/21 03:21:01;;;;;;;2.20;2.00;;;8.10;99.90;;;;;;5031389;28;20497;-47
2022/09/21 03:23:28;;;;;;;4.33;2.27;;;7.90;99.90;;;;;;5031591;28;20496;-48
2022/09/21 03:25:55;;;;;;;5.37;2.83;;;7.30;99.90;;;;;;5031818;28;20494;-46
2022/09/21 03:28:22;;;;;;;2.63;2.27;;;7.20;99.90;;;;;;5031723;28;20793;-47
2022/09/21 03:30:50;;;;;;;3.87;2.10;;;7.50;99.90;;;;;;5031483;28;20439;-47
2022/09/21 03:33:18;;;;;;;3.90;2.63;;;7.60;99.90;;;;;;5031528;28;20489;-45
2022/09/21 03:35:47;;;;;;;2.90;2.13;;;7.60;99.90;;;;;;5030913;28;20927;-45
2022/09/21 03:38:15;;;;;;;4.30;2.77;;;7.70;99.90;;;;;;5031995;28;20629;-46
2022/09/21 03:40:45;;;;;;;3.20;2.23;;;7.80;99.90;;;;;;5031229;28;20450;-46
2022/09/21 03:43:12;;;;;;;4.07;2.60;;;7.80;99.90;;;;;;5032172;28;20446;-45
2022/09/21 03:45:41;;;;;;;4.30;2.53;;;7.70;99.90;;;;;;5031585;28;20470;-47
2022/09/21 03:48:09;;;;;;;3.63;3.00;;;7.60;99.90;;;;;;5031715;28;20470;-47
2022/09/21 03:50:36;;;;;;;3.10;2.37;;;7.60;99.90;;;;;;5031217;28;20463;-47
2022/09/21 03:53:05;;;;;;;2.30;2.00;;;7.70;99.90;;;;;;5031686;28;20457;-47
2022/09/21 03:55:33;;;;;;;2.70;2.20;;;7.80;99.90;;;;;;5031891;28;20475;-46
2022/09/21 03:58:00;;;;;;;3.70;2.33;;;7.70;99.90;;;;;;5031402;28;21047;-47
2022/09/21 04:00:28;;;;;;;3.07;2.60;;;7.90;99.90;;;;;;5031041;28;20434;-47
2022/09/21 04:02:55;;;;;;;6.57;2.90;;;7.80;99.90;;;;;;5031362;28;20517;-47
2022/09/21 04:05:22;;;;;;;4.40;2.30;;;7.70;99.90;;;;;;5031311;28;20478;-50
2022/09/21 04:07:49;;;;;;;2.10;1.47;;;7.50;99.90;;;;;;5031237;28;20983;-46
2022/09/21 04:10:20;;;;;;;5.67;2.07;;;7.50;99.90;;;;;;5031154;28;20450;-46
2022/09/21 04:12:47;;;;;;;4.20;1.90;;;7.60;99.90;;;;;;5031207;28;20445;-48
2022/09/21 04:15:18;;;;;;;3.03;2.40;;;7.50;99.90;;;;;;5031259;28;20447;-46
2022/09/21 04:17:45;;;;;;;2.10;1.67;;;7.50;99.90;;;;;;5032720;28;20466;-50
2022/09/21 04:20:13;;;;;;;3.17;2.53;;;7.40;99.90;;;;;;5031360;28;20458;-46
2022/09/21 04:22:40;;;;;;;3.10;2.07;;;7.40;99.90;;;;;;5031701;28;20951;-47
2022/09/21 04:25:08;;;;;;;2.23;2.00;;;7.30;99.90;;;;;;5031990;28;20485;-46
2022/09/21 04:27:36;;;;;;;2.50;2.00;;;7.30;99.90;;;;;;5031402;28;20474;-46
2022/09/21 04:30:03;;;;;;;4.27;2.37;;;7.30;99.90;;;;;;5030565;28;20438;-46
2022/09/21 04:32:30;;;;;;;2.20;2.00;;;7.30;99.90;;;;;;5030287;28;20821;-47
2022/09/21 04:34:58;;;;;;;2.13;1.83;;;7.40;99.90;;;;;;5029806;28;20455;-49
2022/09/21 04:37:25;;;;;;;2.40;2.10;;;7.30;99.90;;;;;;5030688;28;20991;-47
2022/09/21 04:39:52;;;;;;;4.13;1.80;;;7.20;99.90;;;;;;5029976;28;20446;-48
2022/09/21 04:42:19;;;;;;;2.03;1.83;;;7.10;99.90;;;;;;5031135;28;20516;-47
2022/09/21 04:44:47;;;;;;;2.03;1.70;;;7.30;99.90;;;;;;5030790;28;20983;-47
2022/09/21 04:47:14;;;;;;;3.10;1.70;;;7.40;99.90;;;;;;5030805;28;20512;-46
2022/09/21 04:49:41;;;;;;;2.20;1.87;;;7.30;99.90;;;;;;5030397;28;20466;-47
2022/09/21 04:52:08;;;;;;;2.47;2.07;;;7.20;99.90;;;;;;5030928;28;20908;-47
2022/09/21 04:54:35;;;;;;;2.43;1.77;;;7.00;99.90;;;;;;5030420;28;20442;-47
2022/09/21 04:57:02;;;;;;;2.23;2.00;;;6.90;99.90;;;;;;5030949;28;20971;-47
2022/09/21 04:59:29;;;;;;;2.30;1.70;;;7.10;99.90;;;;;;5029780;28;20459;-47
2022/09/21 05:01:58;;;;;;;6.03;2.47;;;7.20;99.90;;;;;;5031122;28;20450;-46
2022/09/21 05:04:25;;;;;;;3.03;2.80;;;7.00;99.90;;;;;;5031094;28;21000;-45
2022/09/21 05:06:52;;;;;;;3.23;2.20;;;6.90;99.90;;;;;;5030455;28;20898;-49
2022/09/21 05:12:04;;;;;;;2.40;2.20;;;6.70;99.90;;;;;;5030841;28;20934;-45
2022/09/21 05:14:31;;;;;;;3.70;1.80;;;6.70;99.90;;;;;;5030602;28;20855;-47
2022/09/21 05:16:59;;;;;;;3.13;2.60;;;6.70;99.90;;;;;;5030766;28;20471;-44
2022/09/21 05:19:26;;;;;;;2.10;1.70;;;6.80;99.90;;;;;;5029889;28;20446;-44
2022/09/21 05:21:53;;;;;;;2.63;2.43;;;6.90;99.90;;;;;;5030501;28;20434;-46
2022/09/21 05:24:20;;;;;;;3.20;2.90;;;6.90;99.90;;;;;;5030963;28;20501;-46
2022/09/21 05:26:47;;;;;;;3.53;3.23;;;6.90;99.90;;;;;;5030595;28;20474;-48
2022/09/21 05:29:15;;;;;;;4.30;2.80;;;6.90;99.90;;;;;;5030311;28;20936;-44
2022/09/21 05:31:47;;;;;;;2.30;1.80;;;6.60;99.90;;;;;;5030403;28;20477;-49
2022/09/21 05:34:30;;;;;;;2.57;1.87;;;6.40;99.90;;;;;;5029846;28;20474;-46
2022/09/21 05:37:02;;;;;;;2.83;2.50;;;6.70;99.90;;;;;;5030371;28;20454;-46
2022/09/21 05:39:29;;;;;;;3.40;3.10;;;6.70;99.90;;;;;;5030170;28;20488;-45
2022/09/21 05:41:57;;;;;;;2.50;2.30;;;6.80;99.90;;;;;;5030511;28;20504;-48
2022/09/21 05:44:24;;;;;;;3.53;2.63;;;6.80;99.90;;;;;;5030471;28;20508;-45
2022/09/21 05:46:59;;;;;;;4.80;4.40;;;6.90;99.90;;;;;;5031174;28;21085;-46
2022/09/21 05:49:38;;;;;;;4.43;4.10;;;7.00;99.90;;;;;;5033845;28;20508;-47
2022/09/21 05:52:15;;;;;;;3.30;2.97;;;7.00;99.90;;;;;;5034014;28;20453;-47
2022/09/21 05:54:52;;;;;;;3.33;2.37;;;6.80;99.90;;;;;;5034337;28;20439;-47
2022/09/21 05:57:28;;;;;;;2.50;2.30;;;6.70;99.90;;;;;;5034354;28;21017;-45
2022/09/21 06:00:03;;;;;;;6.53;2.60;;;6.50;99.90;;;;;;5033455;28;20982;-48
2022/09/21 06:02:50;;;;;;;5.23;4.80;;;6.60;99.90;;;;;;5034083;28;20458;-47
2022/09/21 06:05:20;;;;;;;4.50;3.50;;;6.60;99.90;;;;;;5033796;28;20568;-45
2022/09/21 06:07:46;;;;;;;5.80;2.33;;;6.60;99.90;;;;;;5033770;28;20470;-47
2022/09/21 06:10:15;;;;;;;4.80;2.87;;;6.80;99.90;;;;;;5033320;28;20462;-46
2022/09/21 06:12:42;;;;;;;3.77;2.93;;;6.80;99.90;;;;;;5033812;28;20435;-47
2022/09/21 06:15:15;;;;;;;2.93;2.10;;;6.60;99.90;;;;;;5033607;28;20469;-47
2022/09/21 06:17:43;;;;;;;2.53;1.77;;;6.80;99.90;;;;;;5033912;28;20901;-47
2022/09/21 06:20:10;;;;;;;2.53;2.33;;;6.70;99.90;;;;;;5033217;28;20451;-47
2022/09/21 06:22:38;;;;;;;2.97;2.27;;;6.80;99.90;;;;;;5033389;28;20427;-47
2022/09/21 06:25:06;;;;;;;3.30;2.93;;;6.90;99.90;;;;;;5033399;28;20430;-47
2022/09/21 06:27:33;;;;;;;5.20;4.00;;;6.80;99.90;;;;;;5033665;28;20486;-48
2022/09/21 06:30:00;;;;;;;5.20;3.93;;;6.80;99.90;;;;;;5032267;28;20991;-47
2022/09/21 06:32:27;;;;;;;5.33;4.70;;;7.00;99.90;;;;;;5033048;28;20539;-47
2022/09/21 06:34:54;;;;;;;7.30;5.53;;;6.90;99.90;;;;;;5032568;28;20496;-47
2022/09/21 06:37:21;;;;;;;8.87;5.43;;;6.80;99.90;;;;;;5033334;28;20465;-47
2022/09/21 06:39:49;;;;;;;6.90;6.13;;;6.80;99.90;;;;;;5032423;28;20964;-47
2022/09/21 06:42:16;;;;;;;11.50;7.10;;;7.00;99.90;;;;;;5033255;28;20575;-47
2022/09/21 06:44:43;;;;;;;6.37;5.50;;;7.10;99.90;;;;;;5032989;28;20936;-46
2022/09/21 06:47:10;;;;;;;6.70;4.80;;;7.10;99.90;;;;;;5033144;28;20486;-48
2022/09/21 06:49:37;;;;;;;4.27;3.87;;;7.10;99.90;;;;;;5032413;28;20439;-47
2022/09/21 06:52:04;;;;;;;4.80;4.40;;;7.10;99.90;;;;;;5032853;28;20508;-49
2022/09/21 06:54:31;;;;;;;6.30;3.60;;;7.10;99.90;;;;;;5032852;28;20510;-47
2022/09/21 06:57:00;;;;;;;7.00;3.40;;;7.20;99.90;;;;;;5032808;28;20470;-47
2022/09/21 06:59:27;;;;;;;3.63;2.63;;;7.20;99.90;;;;;;5031171;28;20427;-47
2022/09/21 07:01:57;;;;;;;3.50;3.00;;;7.00;99.90;;;;;;5033356;28;20435;-47
2022/09/21 07:04:24;;;;;;;6.67;3.40;;;7.10;99.90;;;;;;5033870;28;20526;-47
2022/09/21 07:06:51;;;;;;;3.40;2.67;;;7.20;99.90;;;;;;5033296;28;20473;-49
2022/09/21 07:09:18;;;;;;;3.37;3.07;;;7.30;99.90;;;;;;5032680;28;20474;-48
2022/09/21 07:34:22;;;;;;;6.20;5.60;;;7.70;99.90;;;;;;5024164;28;20676;-48
2022/09/21 07:36:49;;;;;;;9.83;5.47;;;7.70;99.90;;;;;;5024170;28;20481;-46
2022/09/21 07:39:16;;;;;;;9.63;4.70;;;7.70;99.90;;;;;;5024296;28;20866;-49
2022/09/21 07:41:43;;;;;;;6.73;4.57;;;7.70;99.90;;;;;;5025062;28;20530;-47
2022/09/21 07:44:10;;;;;;;5.60;4.13;;;7.80;99.90;;;;;;5025587;28;20494;-48
2022/09/21 07:46:36;;;;;;;7.03;4.43;;;7.90;99.90;;;;;;5069152;23;21045;-50
2022/09/21 07:49:04;;;;;;;7.10;6.40;;;7.90;99.90;;;;;;5004176;28;20971;-50
2022/09/21 07:51:33;;;;;;;5.67;4.90;;;7.80;99.90;;;;;;5004387;28;20444;-50
2022/09/21 07:54:00;;;;;;;6.10;4.30;;;7.60;99.90;;;;;;5004196;28;20431;-50
2022/09/21 07:56:26;;;;;;;6.57;4.57;;;7.70;99.90;;;;;;5004630;28;20483;-51
2022/09/21 07:59:04;;;;;;;4.70;3.47;;;7.60;99.90;;;;;;5004704;28;20530;-50
2022/09/21 08:01:32;;;;;;;3.87;3.47;;;7.40;99.90;;;;;;5004361;28;20481;-50
2022/09/21 08:03:59;;;;;;;4.30;3.93;;;7.60;99.90;;;;;;5003992;28;20515;-50
2022/09/21 08:06:31;;;;;;;4.00;3.20;;;7.50;99.90;;;;;;5004359;28;20463;-50
2022/09/21 08:09:00;;;;;;;6.13;4.43;;;7.60;99.90;;;;;;5004056;28;20496;-51
2022/09/21 08:11:29;;;;;;;3.60;3.30;;;7.60;99.90;;;;;;5004567;28;20475;-50
2022/09/21 08:13:58;;;;;;;4.83;3.20;;;7.60;99.90;;;;;;5003888;28;20444;-51
2022/09/21 08:16:25;;;;;;;4.90;2.40;;;7.70;99.90;;;;;;5004056;28;20499;-51
2022/09/21 08:18:53;;;;;;;3.20;2.90;;;7.60;99.90;;;;;;5004216;28;20483;-50
2022/09/21 08:21:20;;;;;;;2.87;2.57;;;7.70;99.90;;;;;;5004066;28;20532;-50
2022/09/21 08:23:48;;;;;;;3.37;2.60;;;7.80;99.90;;;;;;5003304;28;20843;-50
2022/09/21 08:26:18;;;;;;;2.27;2.07;;;7.80;99.90;;;;;;5004224;28;20563;-51
2022/09/21 08:28:48;;;;;;;2.00;1.80;;;7.80;99.90;;;;;;5004227;28;20452;-50
2022/09/21 08:31:18;;;;;;;2.40;2.10;;;7.80;99.90;;;;;;5004176;28;20452;-51
2022/09/21 08:33:45;;;;;;;2.50;2.30;;;7.90;99.90;;;;;;4999212;28;20476;-51
2022/09/21 08:36:12;;;;;;;2.50;2.00;;;7.90;99.90;;;;;;4990726;28;20512;-51
2022/09/21 08:38:40;;;;;;;5.97;2.40;;;7.90;99.90;;;;;;4990380;28;20914;-51
2022/09/21 08:41:18;;;;;;;5.13;2.60;;;7.80;99.90;;;;;;4991081;28;20440;-51
2022/09/21 08:43:48;;;;;;;2.30;2.10;;;7.80;99.90;;;;;;4990360;28;20592;-50
2022/09/21 08:46:18;;;;;;;1.77;1.63;;;7.80;99.90;;;;;;4990513;28;20559;-51
2022/09/21 08:48:50;;;;;;;2.90;2.20;;;8.00;99.90;;;;;;4990700;28;20472;-52
2022/09/21 08:51:22;;;;;;;2.20;1.87;;;8.10;99.90;;;;;;4990644;28;20480;-52
2022/09/21 08:53:52;;;;;;;2.10;1.90;;;8.10;99.90;;;;;;4990473;28;20470;-51
2022/09/21 08:56:22;;;;;;;3.87;1.97;;;8.00;99.90;;;;;;4990155;28;20481;-51
2022/09/21 08:58:49;;;;;;;2.60;1.77;;;7.90;99.90;;;;;;4990490;28;21003;-52
2022/09/21 09:01:31;;;;;;;4.87;1.93;;;7.90;99.90;;;;;;4990386;28;20582;-52
2022/09/21 09:04:16;;;;;;;2.60;2.30;;;7.80;99.90;;;;;;4990028;28;20566;-52
2022/09/21 09:06:51;;;;;;;2.60;1.60;;;8.00;99.90;;;;;;4990289;28;20547;-52
2022/09/21 09:09:42;;;;;;;2.67;1.93;;;8.00;99.90;;;;;;4990706;28;20476;-51
2022/09/21 09:12:23;;;;;;;2.70;2.23;;;7.90;99.90;;;;;;4990395;28;20480;-52
2022/09/21 09:15:07;;;;;;;4.27;2.30;;;7.80;99.90;;;;;;4990012;28;21013;-51
2022/09/21 09:17:45;;;;;;;2.33;2.00;;;7.90;99.90;;;;;;4990549;28;20479;-52
2022/09/21 09:20:15;;;;;;;2.37;2.17;;;8.10;99.90;;;;;;4990179;28;20476;-52
2022/09/21 09:22:47;;;;;;;2.40;2.17;;;8.10;99.90;;;;;;4990261;28;20564;-52
2022/09/21 09:25:19;;;;;;;2.07;1.80;;;8.10;99.90;;;;;;4989439;28;20529;-52
2022/09/21 09:27:50;;;;;;;4.57;2.67;;;8.20;99.90;;;;;;4989875;28;20810;-52
2022/09/21 09:30:19;;;;;;;2.47;2.07;;;8.20;99.90;;;;;;4990198;28;20531;-52
2022/09/21 09:32:56;;;;;;;2.40;2.00;;;8.20;99.90;;;;;;4989969;28;20473;-52
2022/09/21 09:35:27;;;;;;;3.10;1.90;;;8.30;99.90;;;;;;4989998;28;20567;-52
2022/09/21 09:37:59;;;;;;;2.60;1.80;;;8.50;99.90;;;;;;4989274;28;20448;-52
2022/09/21 09:40:42;;;;;;;4.03;2.13;;;8.80;99.90;;;;;;4989751;28;20440;-52
2022/09/21 09:43:18;;;;;;;2.10;1.80;;;8.80;99.90;;;;;;4989439;28;21014;-52
2022/09/21 09:45:56;;;;;;;2.53;2.33;;;8.70;99.90;;;;;;4988630;28;20566;-52
2022/09/21 09:48:47;;;;;;;3.07;2.30;;;8.80;99.90;;;;;;4989961;28;20539;-52
2022/09/21 09:51:14;;;;;;;2.97;2.40;;;8.80;99.90;;;;;;4989820;28;20497;-52
2022/09/21 09:53:41;;;;;;;3.73;2.67;;;8.90;99.90;;;;;;4989759;28;20480;-52
2022/09/21 09:56:10;;;;;;;2.43;2.10;;;8.80;99.90;;;;;;4989352;28;20467;-52
2022/09/21 09:58:45;;;;;;;7.30;2.23;;;8.80;99.90;;;;;;4989645;28;20449;-52
2022/09/21 10:01:37;;;;;;;2.40;2.00;;;9.00;99.90;;;;;;4989446;28;20795;-52
2022/09/21 10:04:07;;;;;;;3.30;2.17;;;9.10;99.90;;;;;;4989246;28;20480;-52
2022/09/21 10:06:34;;;;;;;3.40;2.63;;;9.20;99.90;;;;;;4989425;28;20985;-52
2022/09/21 10:09:01;;;;;;;4.03;2.27;;;9.60;99.90;;;;;;4989448;28;20480;-53
2022/09/21 10:11:36;;;;;;;5.03;2.80;;;9.80;99.90;;;;;;4989328;28;20481;-52
2022/09/21 10:14:19;;;;;;;3.20;2.77;;;10.10;99.90;;;;;;4989146;28;20444;-52
2022/09/21 10:16:48;;;;;;;3.20;2.43;;;10.20;99.90;;;;;;4989228;28;20496;-52
2022/09/21 10:19:18;;;;;;;2.40;2.20;;;10.40;99.90;;;;;;4989583;28;20472;-52
2022/09/21 10:21:45;;;;;;;2.53;2.33;;;10.40;99.90;;;;;;4989324;28;20448;-52
2022/09/21 10:24:21;;;;;;;3.60;3.03;;;10.60;99.90;;;;;;4988485;28;20525;-52
2022/09/21 10:26:51;;;;;;;3.50;3.17;;;10.70;99.90;;;;;;4989062;28;20491;-52
2022/09/21 10:29:29;;;;;;;3.03;2.40;;;11.00;99.90;;;;;;4983122;28;20442;-52
2022/09/21 10:31:58;;;;;;;3.40;2.37;;;11.10;99.90;;;;;;4978675;28;20503;-52
2022/09/21 10:34:27;;;;;;;2.70;2.47;;;11.20;99.90;;;;;;4977771;28;20531;-52
2022/09/21 10:36:56;;;;;;;3.40;2.43;;;11.40;99.90;;;;;;4979355;28;20471;-52
2022/09/21 10:39:26;;;;;;;4.50;2.80;;;11.50;99.90;;;;;;4979567;28;21044;-52
2022/09/21 10:42:05;;;;;;;3.67;2.43;;;11.60;99.90;;;;;;4978397;28;20898;-51
2022/09/21 10:44:39;;;;;;;3.30;2.40;;;11.60;99.90;;;;;;4977861;28;21065;-51
2022/09/21 10:47:19;;;;;;;3.60;2.20;;;11.40;99.90;;;;;;4968629;28;20823;-52
2022/09/21 10:49:49;;;;;;;2.10;1.83;;;11.50;99.90;;;;;;4968500;28;20473;-52
2022/09/21 10:52:18;;;;;;;2.27;1.63;;;11.60;99.90;;;;;;4969426;28;20601;-52
2022/09/21 10:54:47;;;;;;;2.53;2.33;;;11.60;99.90;;;;;;4968062;28;20446;-52
2022/09/21 10:57:18;;;;;;;1.50;1.40;;;11.70;99.90;;;;;;4968573;28;20565;-52
2022/09/21 10:59:46;;;;;;;2.93;1.57;;;11.70;99.90;;;;;;4969478;28;20474;-51
2022/09/21 11:02:35;;;;;;;1.80;1.50;;;11.80;99.90;;;;;;4969392;28;20447;-52
2022/09/21 11:05:09;;;;;;;2.17;1.30;;;12.10;99.90;;;;;;4960812;28;20495;-52
2022/09/21 11:07:43;;;;;;;1.93;1.57;;;12.20;99.90;;;;;;4968753;28;20452;-52
2022/09/21 11:10:18;;;;;;;1.40;1.20;;;12.20;99.90;;;;;;4968654;28;20498;-52
2022/09/21 11:13:04;;;;;;;5.33;1.23;;;12.30;99.90;;;;;;4968904;28;20483;-52
2022/09/21 11:15:44;;;;;;;2.43;1.47;;;12.30;99.90;;;;;;4969041;28;20473;-52
2022/09/21 11:18:18;;;;;;;1.77;1.00;;;12.30;99.90;;;;;;4968698;28;20893;-52
2022/09/21 11:20:50;;;;;;;2.30;1.43;;;12.50;99.90;;;;;;4968893;28;20485;-51
2022/09/21 11:23:28;;;;;;;2.27;1.07;;;12.60;99.90;;;;;;4968618;28;20521;-52
2022/09/21 11:26:04;;;;;;;2.13;1.10;;;12.50;99.90;;;;;;4969073;28;20537;-52
2022/09/21 11:28:39;;;;;;;1.53;0.90;;;12.60;99.90;;;;;;4969112;28;20532;-52
2022/09/21 11:31:29;;;;;;;1.43;0.80;;;12.70;99.90;;;;;;4969057;28;20477;-52
2022/09/21 11:34:15;;;;;;;1.43;1.20;;;12.90;99.90;;;;;;4968608;28;20806;-52
2022/09/21 11:36:51;;;;;;;2.70;1.10;;;12.90;99.90;;;;;;4969030;28;20556;-52
2022/09/21 11:39:35;;;;;;;1.33;0.90;;;13.00;99.90;;;;;;4968929;28;20475;-52
2022/09/21 11:42:15;;;;;;;1.23;0.87;;;13.00;99.90;;;;;;4968684;28;20524;-52
2022/09/21 11:44:54;;;;;;;8.70;1.33;;;13.10;99.90;;;;;;4968563;28;20510;-52
2022/09/21 11:47:35;;;;;;;1.67;1.07;;;13.10;99.90;;;;;;4968478;28;20470;-52
2022/09/21 11:50:31;;;;;;;1.63;1.30;;;13.30;99.90;;;;;;4968778;28;20489;-52
2022/09/21 11:53:11;;;;;;;5.47;1.63;;;13.30;99.90;;;;;;4968425;28;20512;-52
2022/09/21 11:56:01;;;;;;;2.10;1.10;;;13.20;99.90;;;;;;4967736;28;20922;-52
2022/09/21 11:58:33;;;;;;;3.03;1.13;;;13.30;99.90;;;;;;4968767;28;20536;-53
2022/09/21 12:01:13;;;;;;;2.17;1.90;;;13.40;99.90;;;;;;4968497;28;20455;-52
2022/09/21 12:04:13;;;;;;;1.80;1.20;;;13.40;99.90;;;;;;4968348;28;20853;-52
2022/09/21 12:06:57;;;;;;;2.07;1.03;;;13.50;99.90;;;;;;4968672;28;20495;-52
2022/09/21 12:10:02;;;;;;;1.50;1.07;;;13.40;99.90;;;;;;4969799;28;20512;-52
2022/09/21 12:12:37;;;;;;;1.70;1.10;;;13.50;99.90;;;;;;4972185;28;20532;-52
2022/09/21 12:15:11;;;;;;;1.40;0.90;;;13.60;99.90;;;;;;4971631;28;20489;-52
2022/09/21 12:17:49;;;;;;;2.40;1.03;;;13.60;99.90;;;;;;4971649;28;20463;-52
2022/09/21 12:20:26;;;;;;;5.00;1.00;;;13.50;99.90;;;;;;4971603;28;20440;-52
2022/09/21 12:22:59;;;;;;;1.40;0.83;;;13.60;99.90;;;;;;4971791;28;20481;-52
2022/09/21 12:25:31;;;;;;;2.00;1.00;;;13.60;99.90;;;;;;4971453;28;20990;-52
2022/09/21 12:28:03;;;;;;;3.40;1.57;;;13.60;99.90;;;;;;4971641;28;20454;-52
2022/09/21 12:30:32;;;;;;;1.70;1.00;;;13.60;99.90;;;;;;4971665;28;20437;-52
2022/09/21 12:33:05;;;;;;;1.47;1.13;;;13.60;99.90;;;;;;4971194;28;20954;-52
2022/09/21 12:35:39;;;;;;;2.50;1.00;;;13.70;99.90;;;;;;4971618;28;20522;-52
2022/09/21 12:38:12;;;;;;;1.37;1.03;;;13.70;99.90;;;;;;4971104;28;20467;-51
2022/09/21 12:40:46;;;;;;;3.00;1.10;;;13.70;99.90;;;;;;4971617;28;20531;-52
2022/09/21 12:43:26;;;;;;;1.27;1.00;;;13.70;99.90;;;;;;4971199;28;20534;-52
2022/09/21 12:45:58;;;;;;;1.20;0.80;;;13.80;99.90;;;;;;4971063;28;20476;-52
2022/09/21 12:48:32;;;;;;;1.23;1.00;;;14.00;99.90;;;;;;4971035;28;20484;-51
2022/09/21 12:51:06;;;;;;;1.60;0.80;;;13.90;99.90;;;;;;4971184;28;20456;-52
2022/09/21 12:53:36;;;;;;;1.33;1.00;;;13.90;99.90;;;;;;4970727;28;20968;-52
2022/09/21 12:56:06;;;;;;;1.63;0.97;;;13.90;99.90;;;;;;4970970;28;20476;-52
2022/09/21 12:58:59;;;;;;;1.20;0.90;;;14.10;99.90;;;;;;4971126;28;20529;-51
2022/09/21 13:01:31;;;;;;;1.40;0.97;;;14.20;99.90;;;;;;4971013;28;20483;-52
2022/09/21 13:04:12;;;;;;;4.30;1.50;;;14.00;99.90;;;;;;4971042;28;20527;-52
2022/09/21 13:07:07;;;;;;;2.60;1.07;;;14.10;99.90;;;;;;4971350;28;20521;-52
2022/09/21 13:09:38;;;;;;;1.37;1.10;;;14.00;99.90;;;;;;4970971;28;20864;-52
2022/09/21 13:12:11;;;;;;;1.30;1.10;;;14.00;99.90;;;;;;4970981;28;20985;-52
2022/09/21 13:14:44;;;;;;;2.40;1.30;;;14.00;99.90;;;;;;4970905;28;20491;-52
2022/09/21 13:17:20;;;;;;;1.90;1.00;;;14.20;99.90;;;;;;4970810;28;20474;-52
2022/09/21 13:19:57;;;;;;;1.20;0.80;;;14.10;99.90;;;;;;4970947;28;20490;-52
2022/09/21 13:22:29;;;;;;;1.50;1.07;;;14.30;99.90;;;;;;4971128;28;20490;-52
2022/09/21 13:25:17;;;;;;;1.50;1.00;;;14.30;99.90;;;;;;4970149;28;20508;-52
2022/09/21 13:28:03;;;;;;;2.17;1.03;;;14.10;99.90;;;;;;4970587;28;20544;-52
2022/09/21 13:30:35;;;;;;;2.73;2.53;;;14.30;99.90;;;;;;4970879;28;20451;-52
2022/09/21 13:33:04;;;;;;;1.73;0.87;;;14.20;99.90;;;;;;4970527;28;20451;-53
2022/09/21 13:35:54;;;;;;;1.30;1.10;;;14.20;99.90;;;;;;4970295;28;20975;-51
2022/09/21 13:38:27;;;;;;;1.37;1.23;;;14.20;99.90;;;;;;4970498;28;20492;-52
2022/09/21 13:41:00;;;;;;;3.77;1.30;;;14.20;99.90;;;;;;4970525;28;20459;-52
2022/09/21 13:44:02;;;;;;;1.23;1.00;;;14.40;99.90;;;;;;4969888;28;20986;-52
2022/09/21 13:46:54;;;;;;;1.00;0.77;;;14.30;99.90;;;;;;5029501;23;20530;-49